Terminal Aerodrome Forecast
Issued by NWS Pocatello, ID

Home | Current Version | Previous Version | Text Only | Print | Product List | Glossary On
Versions: 1 2 3 4 5 6 7 8 9 10 11 12 13 14
000
FTUS45 KPIH 231733
TAFPIH
TAF
KPIH 231733Z 2318/2418 VRB06KT P6SM VCSH FEW060 SCT100
     FM232100 25012G22KT P6SM VCTS BKN050CB BKN080
     FM240300 24011KT P6SM FEW050 SCT120
     FM241500 21009KT 6SM -SHRA BR BKN030 OVC040=

USA.gov is the U.S. government's official web portal to all federal, state and local government web resources and services.